createdAt,value
2022-12-29T00:01:59.012Z,7.63
2022-12-29T00:04:33.557Z,7.97
2022-12-29T00:07:06.889Z,6.95
2022-12-29T00:09:39.898Z,8.27
2022-12-29T00:12:17.103Z,8.52
2022-12-29T00:15:07.621Z,7.95
2022-12-29T00:17:40.790Z,7.22
2022-12-29T00:20:32.236Z,7.30
2022-12-29T00:23:22.536Z,7.28
2022-12-29T00:26:12.916Z,7.18
2022-12-29T00:29:04.512Z,7.32
2022-12-29T00:31:54.878Z,6.60
2022-12-29T00:34:44.910Z,7.00
2022-12-29T00:37:39.971Z,7.07
2022-12-29T00:40:30.224Z,6.85
2022-12-29T00:43:20.437Z,6.43
2022-12-29T00:45:53.968Z,6.82
2022-12-29T00:48:44.777Z,6.38
2022-12-29T00:51:17.787Z,6.70
2022-12-29T00:53:52.623Z,6.07
2022-12-29T00:56:25.628Z,6.85
2022-12-29T00:59:02.479Z,6.47
2022-12-29T01:01:36.447Z,7.28
2022-12-29T01:04:10.710Z,6.10
2022-12-29T01:06:43.876Z,5.80
2022-12-29T01:09:36.958Z,6.05
2022-12-29T01:12:11.379Z,5.90
2022-12-29T01:14:44.373Z,6.28
2022-12-29T01:17:17.341Z,5.73
2022-12-29T01:19:51.081Z,6.00
2022-12-29T01:22:24.069Z,5.60
2022-12-29T01:24:58.550Z,5.63
2022-12-29T01:27:31.585Z,6.32
2022-12-29T01:30:06.893Z,6.07
2022-12-29T01:32:40.307Z,5.70
2022-12-29T01:35:13.351Z,5.32
2022-12-29T01:40:21.607Z,4.55
2022-12-29T01:42:54.563Z,4.82
2022-12-29T01:45:27.706Z,4.95
2022-12-29T01:48:04.558Z,5.38
2022-12-29T01:50:42.161Z,5.03
2022-12-29T01:53:20.295Z,5.03
2022-12-29T01:55:57.887Z,4.45
2022-12-29T01:58:34.583Z,5.43
2022-12-29T02:01:08.413Z,5.45
2022-12-29T02:03:42.861Z,4.30
2022-12-29T02:06:21.072Z,4.72
2022-12-29T02:08:57.257Z,4.28
2022-12-29T02:11:33.010Z,4.63
2022-12-29T02:14:11.040Z,5.50
2022-12-29T02:17:02.756Z,4.80
2022-12-29T02:20:13.774Z,4.45
2022-12-29T02:22:58.033Z,4.90
2022-12-29T02:26:03.426Z,4.20
2022-12-29T02:29:08.032Z,3.95
2022-12-29T02:31:47.190Z,4.32
2022-12-29T02:34:32.566Z,4.50
2022-12-29T02:37:09.299Z,4.22
2022-12-29T02:39:48.372Z,4.47
2022-12-29T02:42:31.142Z,4.40
2022-12-29T02:45:10.028Z,4.40
2022-12-29T02:47:51.940Z,3.95
2022-12-29T02:50:29.258Z,4.25
2022-12-29T02:53:06.730Z,4.35
2022-12-29T02:55:42.178Z,4.82
2022-12-29T02:58:19.241Z,4.35
2022-12-29T03:01:11.278Z,4.50
2022-12-29T03:04:00.511Z,4.25
2022-12-29T03:06:43.231Z,4.05
2022-12-29T03:09:28.444Z,4.20
2022-12-29T03:12:12.469Z,4.40
2022-12-29T03:15:11.465Z,4.07
2022-12-29T03:17:52.077Z,4.40
2022-12-29T03:20:33.861Z,4.95
2022-12-29T03:23:10.045Z,4.65
2022-12-29T03:25:47.079Z,4.05
2022-12-29T03:28:24.515Z,4.00
2022-12-29T03:30:59.656Z,4.35
2022-12-29T03:33:35.242Z,4.07
2022-12-29T03:36:15.858Z,4.30
2022-12-29T03:38:53.272Z,4.18
2022-12-29T03:41:30.686Z,4.35
2022-12-29T03:44:07.550Z,4.32
2022-12-29T03:46:41.274Z,4.65
2022-12-29T03:49:15.847Z,4.45
2022-12-29T03:51:52.016Z,4.57
2022-12-29T03:54:26.252Z,4.10
2022-12-29T03:56:59.498Z,4.60
2022-12-29T03:59:48.098Z,4.30
2022-12-29T04:02:21.442Z,4.38
2022-12-29T04:04:54.790Z,4.53
2022-12-29T04:07:29.265Z,4.35
2022-12-29T04:10:04.306Z,4.80
2022-12-29T04:12:42.644Z,5.03
2022-12-29T04:15:15.877Z,4.32
2022-12-29T04:17:48.860Z,5.25
2022-12-29T04:20:39.321Z,4.72
2022-12-29T04:23:15.076Z,4.30
2022-12-29T04:25:48.678Z,4.43
2022-12-29T04:28:22.499Z,4.65
2022-12-29T04:31:01.552Z,4.55
2022-12-29T04:33:46.820Z,4.95
2022-12-29T04:36:19.861Z,5.10
2022-12-29T04:38:54.524Z,4.60
2022-12-29T04:41:27.898Z,5.15
2022-12-29T04:44:01.359Z,4.70
2022-12-29T04:47:12.903Z,4.72
2022-12-29T04:50:12.540Z,4.78
2022-12-29T04:52:49.628Z,5.82
2022-12-29T04:55:24.614Z,5.03
2022-12-29T04:57:57.710Z,4.90
2022-12-29T05:00:31.093Z,5.43
2022-12-29T05:03:04.273Z,4.82
2022-12-29T05:05:37.500Z,4.75
2022-12-29T05:08:10.689Z,5.57
2022-12-29T05:10:47.779Z,5.03
2022-12-29T05:13:23.810Z,5.13
2022-12-29T05:15:57.196Z,5.20
2022-12-29T05:18:30.900Z,5.25
2022-12-29T05:21:05.818Z,5.72
2022-12-29T05:23:38.961Z,6.50
2022-12-29T05:26:14.245Z,5.15
2022-12-29T05:29:02.135Z,5.60
2022-12-29T05:31:36.645Z,5.30
2022-12-29T05:34:12.883Z,5.82
2022-12-29T05:36:46.839Z,6.70
2022-12-29T05:39:21.122Z,5.68
2022-12-29T05:42:02.109Z,6.18
2022-12-29T05:44:59.801Z,5.38
2022-12-29T05:47:51.610Z,5.32
2022-12-29T05:50:39.075Z,4.68
2022-12-29T05:53:22.718Z,4.90
2022-12-29T05:55:55.842Z,5.43
2022-12-29T05:58:30.259Z,4.90
2022-12-29T06:01:03.364Z,5.15
2022-12-29T06:03:36.545Z,5.68
2022-12-29T06:06:09.781Z,5.65
2022-12-29T06:08:43.613Z,5.63
2022-12-29T06:11:16.908Z,5.82
2022-12-29T06:13:57.551Z,5.68
2022-12-29T06:16:31.179Z,5.63
2022-12-29T06:19:07.112Z,4.85
2022-12-29T06:21:40.626Z,4.78
2022-12-29T06:24:13.782Z,6.10
2022-12-29T06:26:46.850Z,5.37
2022-12-29T06:29:21.662Z,5.25
2022-12-29T06:31:57.255Z,5.45
2022-12-29T06:34:30.402Z,4.90
2022-12-29T06:37:03.396Z,5.22
2022-12-29T06:39:36.432Z,5.38
2022-12-29T06:42:16.612Z,4.75
2022-12-29T06:45:02.338Z,4.85
2022-12-29T06:47:35.422Z,5.20
2022-12-29T06:50:08.986Z,5.28
2022-12-29T06:52:42.365Z,3.72
2022-12-29T06:55:15.469Z,5.03
2022-12-29T06:57:48.436Z,5.10
2022-12-29T07:00:23.394Z,4.90
2022-12-29T07:03:00.148Z,5.03
2022-12-29T07:05:33.716Z,5.28
2022-12-29T07:08:07.087Z,4.65
2022-12-29T07:10:40.237Z,5.03
2022-12-29T07:13:13.195Z,5.53
2022-12-29T07:15:47.604Z,5.90
2022-12-29T07:18:20.642Z,5.25
2022-12-29T07:20:53.666Z,5.75
2022-12-29T07:23:26.753Z,6.30
2022-12-29T07:26:03.284Z,6.50
2022-12-29T07:28:39.022Z,6.07
2022-12-29T07:31:17.794Z,5.75
2022-12-29T07:33:51.106Z,4.80
2022-12-29T07:36:26.065Z,5.10
2022-12-29T07:39:02.666Z,5.10
2022-12-29T07:41:35.930Z,5.75
2022-12-29T07:44:10.886Z,4.88
2022-12-29T07:47:03.699Z,6.40
2022-12-29T07:49:36.726Z,6.72
2022-12-29T07:52:09.825Z,5.57
2022-12-29T07:54:42.800Z,5.22
2022-12-29T07:57:15.796Z,5.17
2022-12-29T07:59:48.840Z,5.10
2022-12-29T08:02:23.300Z,4.97
2022-12-29T08:04:56.974Z,5.38
2022-12-29T08:07:29.940Z,5.90
2022-12-29T08:10:03.205Z,5.00
2022-12-29T08:12:36.178Z,5.65
2022-12-29T08:15:10.977Z,5.27
2022-12-29T08:17:45.426Z,5.95
2022-12-29T08:20:18.509Z,7.55
2022-12-29T08:22:52.553Z,9.07
2022-12-29T08:25:25.640Z,5.75
2022-12-29T08:27:58.769Z,5.20
2022-12-29T08:30:31.787Z,5.00
2022-12-29T08:33:06.186Z,5.20
2022-12-29T08:35:39.196Z,4.97
2022-12-29T08:38:12.757Z,5.22
2022-12-29T08:40:45.987Z,5.05
2022-12-29T08:43:19.095Z,5.05
2022-12-29T08:45:52.320Z,5.20
2022-12-29T08:48:26.992Z,5.55
2022-12-29T08:51:00.004Z,6.25
2022-12-29T08:53:33.006Z,7.38
2022-12-29T08:56:07.605Z,5.88
2022-12-29T08:58:51.389Z,6.10
2022-12-29T09:01:25.591Z,5.55
2022-12-29T09:04:17.391Z,6.10
2022-12-29T09:06:51.615Z,6.10
2022-12-29T09:09:24.734Z,5.53
2022-12-29T09:11:57.682Z,6.20
2022-12-29T09:14:30.930Z,6.40
2022-12-29T09:17:21.465Z,5.18
2022-12-29T09:19:56.012Z,5.30
2022-12-29T09:22:29.027Z,6.05
2022-12-29T09:25:01.999Z,6.47
2022-12-29T09:27:35.038Z,5.70
2022-12-29T09:30:10.631Z,5.40
2022-12-29T09:32:45.453Z,5.65
2022-12-29T09:35:20.475Z,6.03
2022-12-29T09:37:53.461Z,6.70
2022-12-29T09:40:30.925Z,5.88
2022-12-29T09:43:16.124Z,6.30
2022-12-29T09:45:57.400Z,6.47
2022-12-29T09:48:36.652Z,6.25
2022-12-29T09:51:14.889Z,6.13
2022-12-29T09:53:53.552Z,6.05
2022-12-29T09:56:29.044Z,6.57
2022-12-29T09:59:09.575Z,8.10
2022-12-29T10:01:49.167Z,6.70
2022-12-29T10:04:22.256Z,6.28
2022-12-29T10:10:03.792Z,5.90
2022-12-29T10:12:54.409Z,5.80
2022-12-29T10:15:42.735Z,7.15
2022-12-29T10:18:45.791Z,6.05
2022-12-29T10:21:29.631Z,6.78
2022-12-29T10:24:08.539Z,6.85
2022-12-29T10:26:43.852Z,6.05
2022-12-29T10:29:21.027Z,6.32
2022-12-29T10:32:01.013Z,7.07
2022-12-29T10:34:41.123Z,6.97
2022-12-29T10:37:26.479Z,6.68
2022-12-29T10:40:16.775Z,6.47
2022-12-29T10:42:55.513Z,5.75
2022-12-29T10:45:33.606Z,6.65
2022-12-29T10:48:11.339Z,7.38
2022-12-29T10:50:44.775Z,5.70
2022-12-29T10:53:24.917Z,7.30
2022-12-29T10:56:03.133Z,6.90
2022-12-29T10:58:36.140Z,7.35
2022-12-29T11:01:12.999Z,6.80
2022-12-29T11:03:56.438Z,7.10
2022-12-29T11:06:31.328Z,6.78
2022-12-29T11:09:14.394Z,7.20
2022-12-29T11:11:48.894Z,6.57
2022-12-29T11:14:28.062Z,6.88
2022-12-29T11:17:02.826Z,6.47
2022-12-29T11:19:40.704Z,6.53
2022-12-29T11:22:24.623Z,5.80
2022-12-29T11:25:09.031Z,6.47
2022-12-29T11:27:57.603Z,7.78
2022-12-29T11:30:32.382Z,6.55
2022-12-29T11:33:06.381Z,6.03
2022-12-29T11:35:43.445Z,6.97
2022-12-29T11:38:22.869Z,7.10
2022-12-29T11:40:55.994Z,7.90
2022-12-29T11:43:35.511Z,7.40
2022-12-29T11:46:09.308Z,7.28
2022-12-29T11:51:25.313Z,6.95
2022-12-29T11:54:00.541Z,7.03
2022-12-29T11:56:40.735Z,7.75
2022-12-29T11:59:37.655Z,8.82
2022-12-29T12:02:37.316Z,7.00
2022-12-29T12:05:31.482Z,6.97
2022-12-29T12:08:16.159Z,7.07
2022-12-29T12:11:00.976Z,8.25
2022-12-29T12:13:39.046Z,6.90
2022-12-29T12:16:19.946Z,7.75
2022-12-29T12:19:03.156Z,8.38
2022-12-29T12:21:45.451Z,8.43
2022-12-29T12:24:44.685Z,7.25
2022-12-29T12:27:22.587Z,6.75
2022-12-29T12:30:03.982Z,6.82
2022-12-29T12:32:48.843Z,6.82
2022-12-29T12:35:31.365Z,6.85
2022-12-29T12:38:25.707Z,6.78
2022-12-29T12:41:06.125Z,6.28
2022-12-29T12:43:45.439Z,7.40
2022-12-29T12:46:38.662Z,6.70
2022-12-29T12:49:37.515Z,6.50
2022-12-29T12:52:21.523Z,6.80
2022-12-29T12:57:53.331Z,6.13
2022-12-29T13:00:26.614Z,6.15
2022-12-29T13:03:12.737Z,6.40
2022-12-29T13:06:06.273Z,6.85
2022-12-29T13:08:59.460Z,6.60
2022-12-29T13:11:46.361Z,6.75
2022-12-29T13:14:32.397Z,6.10
2022-12-29T13:19:50.111Z,7.07
2022-12-29T13:22:30.880Z,7.22
2022-12-29T13:25:28.227Z,7.13
2022-12-29T13:28:07.427Z,6.75
2022-12-29T13:30:50.451Z,7.55
2022-12-29T13:33:31.285Z,7.57
2022-12-29T13:36:08.916Z,8.25
2022-12-29T13:38:48.960Z,7.65
2022-12-29T13:41:29.504Z,9.18
2022-12-29T13:44:05.371Z,7.90
2022-12-29T13:46:43.067Z,8.43
2022-12-29T13:49:21.728Z,11.90
2022-12-29T13:51:58.286Z,6.57
2022-12-29T13:54:41.957Z,7.22
2022-12-29T13:57:27.843Z,7.30
2022-12-29T14:00:05.726Z,8.10
2022-12-29T14:03:01.810Z,7.53
2022-12-29T14:05:35.262Z,7.95
2022-12-29T14:08:17.966Z,6.68
2022-12-29T14:10:53.697Z,7.00
2022-12-29T14:13:29.722Z,7.35
2022-12-29T14:16:03.301Z,8.30
2022-12-29T14:18:44.565Z,6.93
2022-12-29T14:21:23.684Z,6.78
2022-12-29T14:23:56.697Z,6.28
2022-12-29T14:26:37.983Z,7.25
2022-12-29T14:29:47.522Z,7.28
2022-12-29T14:32:40.223Z,7.57
2022-12-29T14:35:40.639Z,8.35
2022-12-29T14:38:22.594Z,7.45
2022-12-29T14:41:33.387Z,8.75
2022-12-29T14:44:20.616Z,8.98
2022-12-29T14:47:08.753Z,9.90
2022-12-29T14:49:45.981Z,7.95
2022-12-29T14:52:22.420Z,8.50
2022-12-29T14:54:57.399Z,8.52
2022-12-29T14:57:36.188Z,9.45
2022-12-29T15:00:21.328Z,10.27
2022-12-29T15:03:06.656Z,10.05
2022-12-29T15:05:44.655Z,9.98
2022-12-29T15:08:20.680Z,8.82
2022-12-29T15:10:57.563Z,9.25
2022-12-29T15:13:36.825Z,8.93
2022-12-29T15:16:27.125Z,9.52
2022-12-29T15:19:00.782Z,8.57
2022-12-29T15:21:35.912Z,7.63
2022-12-29T15:24:13.318Z,7.85
2022-12-29T15:26:49.091Z,7.38
2022-12-29T15:29:33.995Z,8.50
2022-12-29T15:32:25.448Z,8.10
2022-12-29T15:35:01.253Z,10.30
2022-12-29T15:37:37.021Z,8.18
2022-12-29T15:40:25.157Z,8.95
2022-12-29T15:43:22.552Z,9.30
2022-12-29T15:45:57.041Z,8.88
2022-12-29T15:48:32.961Z,8.85
2022-12-29T15:51:13.744Z,9.93
2022-12-29T15:53:50.001Z,19.55
2022-12-29T15:56:23.244Z,8.48
2022-12-29T15:58:56.229Z,9.15
2022-12-29T16:01:32.042Z,8.30
2022-12-29T16:04:08.701Z,8.13
2022-12-29T16:06:55.982Z,8.50
2022-12-29T16:09:36.226Z,9.20
2022-12-29T16:12:19.269Z,7.60
2022-12-29T16:14:57.100Z,8.80
2022-12-29T16:17:33.095Z,8.95
2022-12-29T16:20:19.338Z,9.35
2022-12-29T16:22:59.715Z,8.77
2022-12-29T16:25:39.701Z,8.43
2022-12-29T16:28:19.984Z,10.05
2022-12-29T16:31:00.665Z,9.35
2022-12-29T16:33:48.725Z,9.43
2022-12-29T16:36:32.798Z,9.57
2022-12-29T16:41:58.222Z,7.85
2022-12-29T16:44:32.887Z,8.30
2022-12-29T16:47:19.675Z,9.82
2022-12-29T16:49:56.439Z,9.80
2022-12-29T16:52:36.804Z,9.35
2022-12-29T16:55:18.753Z,8.55
2022-12-29T16:57:57.447Z,8.98
2022-12-29T17:00:37.740Z,9.20
2022-12-29T17:03:12.387Z,8.40
2022-12-29T17:05:45.532Z,8.02
2022-12-29T17:08:23.985Z,9.18
2022-12-29T17:11:16.063Z,8.77
2022-12-29T17:13:49.066Z,8.77
2022-12-29T17:16:22.202Z,9.57
2022-12-29T17:18:55.410Z,9.80
2022-12-29T17:21:28.433Z,8.70
2022-12-29T17:24:03.139Z,10.65
2022-12-29T17:26:36.164Z,9.27
2022-12-29T17:29:12.365Z,8.90
2022-12-29T17:31:45.473Z,9.77
2022-12-29T17:34:19.050Z,12.23
2022-12-29T17:36:52.031Z,10.85
2022-12-29T17:39:26.452Z,10.53
2022-12-29T17:41:59.572Z,9.43
2022-12-29T17:44:32.636Z,10.68
2022-12-29T17:47:05.603Z,10.38
2022-12-29T17:49:38.691Z,10.93
2022-12-29T17:52:12.163Z,11.75
2022-12-29T17:54:50.693Z,11.07
2022-12-29T17:57:23.768Z,9.70
2022-12-29T17:59:56.872Z,10.20
2022-12-29T18:02:32.103Z,9.35
2022-12-29T18:05:14.607Z,10.25
2022-12-29T18:07:48.062Z,10.32
2022-12-29T18:10:23.495Z,10.60
2022-12-29T18:12:59.950Z,10.88
2022-12-29T18:15:35.502Z,10.43
2022-12-29T18:18:13.943Z,11.10
2022-12-29T18:20:48.045Z,9.52
2022-12-29T18:23:24.669Z,11.50
2022-12-29T18:26:01.305Z,11.20
2022-12-29T18:28:34.864Z,10.73
2022-12-29T18:31:18.551Z,11.45
2022-12-29T18:33:53.053Z,10.48
2022-12-29T18:36:26.150Z,10.75
2022-12-29T18:38:59.171Z,10.73
2022-12-29T18:41:34.432Z,11.60
2022-12-29T18:44:13.683Z,10.38
2022-12-29T18:46:47.084Z,11.40
2022-12-29T18:49:20.099Z,11.13
2022-12-29T18:51:53.213Z,10.52
2022-12-29T18:54:30.497Z,11.10
2022-12-29T18:57:05.005Z,11.15
2022-12-29T18:59:39.470Z,11.23
2022-12-29T19:02:17.561Z,11.55
2022-12-29T19:04:53.158Z,11.07
2022-12-29T19:07:27.255Z,11.57
2022-12-29T19:10:00.908Z,11.30
2022-12-29T19:12:35.443Z,11.10
2022-12-29T19:15:33.973Z,11.13
2022-12-29T19:18:42.945Z,11.25
2022-12-29T19:21:32.236Z,10.75
2022-12-29T19:24:06.971Z,11.40
2022-12-29T19:26:47.212Z,11.45
2022-12-29T19:29:22.987Z,9.60
2022-12-29T19:32:04.723Z,11.23
2022-12-29T19:34:49.582Z,10.98
2022-12-29T19:37:37.454Z,10.32
2022-12-29T19:40:17.284Z,9.68
2022-12-29T19:42:50.727Z,9.98
2022-12-29T19:45:25.617Z,10.50
2022-12-29T19:47:58.788Z,9.63
2022-12-29T19:50:32.422Z,10.27
2022-12-29T19:53:05.910Z,10.77
2022-12-29T19:55:42.304Z,10.82
2022-12-29T19:58:16.224Z,14.52
2022-12-29T20:00:53.360Z,11.30
2022-12-29T20:03:26.631Z,10.93
2022-12-29T20:05:59.649Z,11.98
2022-12-29T20:08:32.744Z,10.88
2022-12-29T20:11:11.350Z,10.77
2022-12-29T20:13:44.935Z,10.80
2022-12-29T20:16:23.037Z,11.63
2022-12-29T20:18:58.623Z,11.18
2022-12-29T20:21:31.738Z,11.32
2022-12-29T20:24:05.565Z,10.15
2022-12-29T20:26:42.092Z,11.65
2022-12-29T20:29:16.111Z,11.07
2022-12-29T20:31:51.184Z,11.02
2022-12-29T20:34:24.625Z,11.50
2022-12-29T20:36:59.235Z,10.77
2022-12-29T20:39:32.919Z,10.63
2022-12-29T20:42:06.338Z,10.80
2022-12-29T20:44:39.490Z,12.10
2022-12-29T20:47:14.205Z,11.43
2022-12-29T20:49:47.947Z,11.35
2022-12-29T20:55:00.033Z,10.60
2022-12-29T20:57:57.517Z,9.98
2022-12-29T21:00:31.766Z,12.05
2022-12-29T21:03:06.206Z,12.00
2022-12-29T21:05:41.142Z,11.30
2022-12-29T21:08:16.137Z,11.38
2022-12-29T21:10:52.135Z,12.00
2022-12-29T21:13:25.705Z,11.82
2022-12-29T21:16:04.132Z,11.00
2022-12-29T21:18:38.613Z,10.75
2022-12-29T21:21:18.742Z,10.95
2022-12-29T21:23:52.034Z,9.52
2022-12-29T21:26:25.637Z,11.00
2022-12-29T21:28:58.819Z,11.55
2022-12-29T21:31:33.368Z,9.98
2022-12-29T21:34:08.886Z,11.77
2022-12-29T21:36:41.911Z,10.63
2022-12-29T21:39:16.439Z,11.75
2022-12-29T21:41:49.614Z,10.45
2022-12-29T21:44:40.161Z,11.25
2022-12-29T21:47:13.448Z,12.48
2022-12-29T21:49:47.787Z,10.93
2022-12-29T21:52:20.832Z,10.15
2022-12-29T21:55:05.140Z,9.68
2022-12-29T21:57:59.100Z,11.30
2022-12-29T22:01:04.114Z,9.63
2022-12-29T22:03:57.077Z,10.32
2022-12-29T22:06:49.163Z,10.88
2022-12-29T22:09:43.591Z,10.07
2022-12-29T22:12:34.253Z,10.77
2022-12-29T22:15:10.854Z,10.35
2022-12-29T22:17:49.079Z,11.02
2022-12-29T22:20:24.284Z,11.00
2022-12-29T22:22:58.779Z,10.32
2022-12-29T22:25:32.428Z,10.13
2022-12-29T22:28:05.750Z,9.43
2022-12-29T22:30:38.721Z,10.93
2022-12-29T22:33:11.833Z,10.93
2022-12-29T22:35:46.660Z,10.63
2022-12-29T22:38:23.504Z,10.43
2022-12-29T22:41:01.853Z,10.65
2022-12-29T22:43:34.815Z,11.23
2022-12-29T22:46:08.242Z,10.05
2022-12-29T22:48:41.573Z,11.95
2022-12-29T22:51:20.098Z,10.23
2022-12-29T22:53:54.744Z,10.82
2022-12-29T22:56:27.714Z,9.93
2022-12-29T22:59:02.887Z,10.50
2022-12-29T23:01:38.159Z,9.98
2022-12-29T23:04:59.254Z,10.40
2022-12-29T23:07:05.920Z,8.85
2022-12-29T23:09:41.564Z,9.80
2022-12-29T23:12:16.896Z,9.68
2022-12-29T23:14:49.856Z,10.38
2022-12-29T23:17:22.935Z,10.23
2022-12-29T23:19:55.983Z,10.43
2022-12-29T23:22:32.144Z,10.05
2022-12-29T23:25:07.373Z,8.32
2022-12-29T23:27:41.684Z,9.05
2022-12-29T23:30:15.029Z,9.10
2022-12-29T23:32:51.300Z,9.18
2022-12-29T23:35:24.364Z,9.30
2022-12-29T23:37:57.499Z,8.55
2022-12-29T23:40:31.922Z,9.15
2022-12-29T23:43:04.890Z,9.95
2022-12-29T23:45:45.991Z,8.07
2022-12-29T23:48:22.030Z,9.10
2022-12-29T23:50:56.605Z,9.65
2022-12-29T23:53:29.736Z,8.80
2022-12-29T23:56:04.984Z,8.88
2022-12-29T23:58:38.052Z,9.95
